Terminal Aerodrome Forecast
Issued by NWS

Current Version | Previous Version | Text Only | Print | Product List | Glossary On
Versions: 1 2 3 4 5 6 7 8 9 10 11 12 13 14 15 16 17 18 19 20 21
000
FTUS44 KLIX 261120
TAFGPT
TAF
KGPT 261120Z 2612/2712 32005KT P6SM SCT050
     FM261300 13007KT P6SM VCTS SCT030CB BKN070
     FM261600 14007KT 6SM TSRA BKN030CB BKN060
     FM270300 22007KT P6SM BKN060=

USA.gov is the U.S. government's official web portal to all federal, state and local government web resources and services.